createdAt,value
2018-03-04T00:02:08.485Z,55.40
2018-03-04T00:04:36.007Z,55.40
2018-03-04T00:07:04.331Z,56.90
2018-03-04T00:09:31.850Z,54.97
2018-03-04T00:11:59.400Z,52.60
2018-03-04T00:14:26.925Z,52.13
2018-03-04T00:16:54.512Z,54.97
2018-03-04T00:19:22.072Z,52.90
2018-03-04T00:21:49.593Z,54.40
2018-03-04T00:24:17.155Z,42.90
2018-03-04T00:26:44.681Z,53.97
2018-03-04T00:29:12.208Z,50.13
2018-03-04T00:31:39.757Z,51.10
2018-03-04T00:34:07.280Z,53.67
2018-03-04T00:36:35.613Z,55.83
2018-03-04T00:39:03.156Z,56.70
2018-03-04T00:41:30.713Z,52.23
2018-03-04T00:43:58.237Z,54.03
2018-03-04T00:46:25.796Z,57.73
2018-03-04T00:48:53.320Z,55.57
2018-03-04T00:51:20.917Z,57.90
2018-03-04T00:53:48.450Z,55.93
2018-03-04T00:56:16.013Z,53.93
2018-03-04T00:58:43.538Z,57.93
2018-03-04T01:01:11.084Z,57.53
2018-03-04T01:03:38.608Z,55.63
2018-03-04T01:06:06.168Z,57.20
2018-03-04T01:08:33.701Z,52.53
2018-03-04T01:11:01.265Z,45.30
2018-03-04T01:13:28.793Z,59.90
2018-03-04T01:15:56.354Z,55.60
2018-03-04T01:18:23.880Z,57.83
2018-03-04T01:20:51.444Z,58.40
2018-03-04T01:23:18.981Z,54.17
2018-03-04T01:25:46.537Z,59.47
2018-03-04T01:28:14.080Z,55.60
2018-03-04T01:30:42.405Z,56.63
2018-03-04T01:33:09.933Z,52.27
2018-03-04T01:35:37.484Z,57.40
2018-03-04T01:38:05.012Z,55.67
2018-03-04T01:40:32.569Z,56.63
2018-03-04T01:43:00.860Z,53.53
2018-03-04T01:45:29.182Z,57.57
2018-03-04T01:47:56.749Z,54.10
2018-03-04T01:50:24.298Z,57.03
2018-03-04T01:52:51.841Z,56.03
2018-03-04T01:55:19.388Z,58.77
2018-03-04T01:57:46.912Z,53.40
2018-03-04T02:00:15.229Z,55.03
2018-03-04T02:02:42.756Z,54.17
2018-03-04T02:05:10.313Z,53.30
2018-03-04T02:07:37.837Z,52.87
2018-03-04T02:10:05.380Z,52.60
2018-03-04T02:12:32.909Z,55.07
2018-03-04T02:15:00.468Z,55.57
2018-03-04T02:17:27.988Z,57.10
2018-03-04T02:19:55.548Z,55.10
2018-03-04T02:22:23.074Z,54.10
2018-03-04T02:24:50.597Z,52.53
2018-03-04T02:27:18.157Z,52.87
2018-03-04T02:29:45.681Z,52.57
2018-03-04T02:32:13.233Z,53.73
2018-03-04T02:34:41.525Z,47.23
2018-03-04T02:37:09.849Z,54.33
2018-03-04T02:39:37.382Z,53.27
2018-03-04T02:42:05.712Z,55.07
2018-03-04T02:44:33.232Z,51.40
2018-03-04T02:47:01.566Z,55.03
2018-03-04T02:49:29.088Z,54.73
2018-03-04T02:51:56.646Z,56.33
2018-03-04T02:54:24.212Z,59.13
2018-03-04T02:56:51.746Z,55.87
2018-03-04T02:59:19.272Z,53.77
2018-03-04T03:01:46.821Z,50.60
2018-03-04T03:04:14.358Z,50.13
2018-03-04T03:06:41.909Z,52.07
2018-03-04T03:09:10.209Z,53.10
2018-03-04T03:11:37.781Z,53.97
2018-03-04T03:14:06.069Z,56.67
2018-03-04T03:16:34.386Z,55.90
2018-03-04T03:19:01.922Z,54.23
2018-03-04T03:21:29.493Z,56.17
2018-03-04T03:23:57.052Z,52.63
2018-03-04T03:26:24.612Z,50.90
2018-03-04T03:28:52.132Z,54.47
2018-03-04T03:31:19.693Z,56.07
2018-03-04T03:33:47.982Z,55.20
2018-03-04T03:36:16.309Z,51.97
2018-03-04T03:38:43.863Z,51.50
2018-03-04T03:41:11.413Z,54.57
2018-03-04T03:43:39.708Z,52.00
2018-03-04T03:46:08.024Z,52.80
2018-03-04T03:48:35.553Z,53.90
2018-03-04T03:51:03.104Z,55.60
2018-03-04T03:53:30.620Z,55.00
2018-03-04T03:55:58.170Z,56.77
2018-03-04T03:58:25.740Z,52.43
2018-03-04T04:00:53.312Z,54.20
2018-03-04T04:03:20.828Z,55.77
2018-03-04T04:05:48.388Z,58.17
2018-03-04T04:08:15.917Z,54.90
2018-03-04T04:10:43.480Z,56.00
2018-03-04T04:13:11.007Z,58.43
2018-03-04T04:15:38.568Z,63.30
2018-03-04T04:18:06.865Z,57.30
2018-03-04T04:20:34.449Z,56.20
2018-03-04T04:23:01.978Z,55.20
2018-03-04T04:25:29.540Z,54.53
2018-03-04T04:27:57.069Z,58.70
2018-03-04T04:30:24.623Z,58.93
2018-03-04T04:32:52.914Z,59.53
2018-03-04T04:35:20.485Z,57.57
2018-03-04T04:37:48.023Z,55.47
2018-03-04T04:40:15.576Z,59.67
2018-03-04T04:42:43.105Z,61.00
2018-03-04T04:45:10.669Z,55.60
2018-03-04T04:47:39.044Z,56.70
2018-03-04T04:50:06.604Z,50.90
2018-03-04T04:52:34.124Z,57.80
2018-03-04T04:55:01.680Z,55.10
2018-03-04T04:57:29.988Z,54.33
2018-03-04T04:59:57.520Z,45.30
2018-03-04T05:02:25.079Z,56.53
2018-03-04T05:04:52.622Z,54.23
2018-03-04T05:07:20.187Z,52.67
2018-03-04T05:09:47.717Z,53.47
2018-03-04T05:12:16.044Z,53.43
2018-03-04T05:14:43.573Z,53.07
2018-03-04T05:17:11.149Z,48.93
2018-03-04T05:19:39.438Z,50.20
2018-03-04T05:22:06.988Z,53.97
2018-03-04T05:24:34.518Z,51.20
2018-03-04T05:27:02.084Z,52.63
2018-03-04T05:29:29.612Z,52.90
2018-03-04T05:31:57.177Z,56.63
2018-03-04T05:34:24.698Z,51.93
2018-03-04T05:36:52.252Z,50.17
2018-03-04T05:39:19.780Z,51.53
2018-03-04T05:41:47.333Z,44.57
2018-03-04T05:44:14.860Z,51.50
2018-03-04T05:46:43.194Z,49.33
2018-03-04T05:49:10.720Z,51.03
2018-03-04T05:51:38.272Z,49.13
2018-03-04T05:54:05.797Z,49.20
2018-03-04T05:56:33.343Z,48.87
2018-03-04T05:59:01.633Z,48.67
2018-03-04T06:01:29.952Z,44.93
2018-03-04T06:03:57.493Z,44.67
2018-03-04T06:06:25.808Z,48.43
2018-03-04T06:08:53.334Z,47.27
2018-03-04T06:11:20.900Z,51.87
2018-03-04T06:13:48.433Z,48.20
2018-03-04T06:16:15.988Z,48.27
2018-03-04T06:18:43.512Z,42.87
2018-03-04T06:21:11.059Z,46.47
2018-03-04T06:23:38.586Z,49.57
2018-03-04T06:26:06.911Z,47.37
2018-03-04T06:28:34.436Z,46.33
2018-03-04T06:31:01.995Z,38.83
2018-03-04T06:33:29.550Z,40.50
2018-03-04T06:35:57.093Z,41.00
2018-03-04T06:38:24.736Z,44.07
2018-03-04T06:40:53.078Z,42.80
2018-03-04T06:43:20.608Z,41.77
2018-03-04T06:45:48.951Z,44.63
2018-03-04T06:48:16.473Z,42.50
2018-03-04T06:50:44.787Z,42.30
2018-03-04T06:53:12.316Z,41.00
2018-03-04T06:55:39.868Z,38.33
2018-03-04T06:58:07.393Z,40.33
2018-03-04T07:00:34.950Z,37.63
2018-03-04T07:03:03.245Z,41.97
2018-03-04T07:05:31.564Z,40.90
2018-03-04T07:07:59.087Z,39.13
2018-03-04T07:10:26.650Z,39.27
2018-03-04T07:12:54.178Z,39.30
2018-03-04T07:15:21.733Z,43.27
2018-03-04T07:17:49.259Z,39.30
2018-03-04T07:20:16.827Z,39.47
2018-03-04T07:22:44.356Z,42.50
2018-03-04T07:25:11.911Z,43.07
2018-03-04T07:27:40.317Z,46.30
2018-03-04T07:30:07.860Z,43.43
2018-03-04T07:32:35.385Z,40.73
2018-03-04T07:35:02.946Z,45.87
2018-03-04T07:37:30.475Z,43.37
2018-03-04T07:39:58.030Z,44.53
2018-03-04T07:42:25.556Z,42.70
2018-03-04T07:44:53.124Z,43.57
2018-03-04T07:47:20.651Z,43.50
2018-03-04T07:49:48.983Z,44.40
2018-03-04T07:52:16.513Z,42.83
2018-03-04T07:54:44.096Z,41.97
2018-03-04T07:57:12.220Z,42.97
2018-03-04T07:59:39.735Z,40.17
2018-03-04T08:02:08.159Z,39.67
2018-03-04T08:04:35.680Z,38.63
2018-03-04T08:07:03.229Z,39.90
2018-03-04T08:09:30.753Z,37.53
2018-03-04T08:11:58.308Z,40.13
2018-03-04T08:14:25.832Z,39.93
2018-03-04T08:16:53.392Z,42.00
2018-03-04T08:19:21.673Z,40.97
2018-03-04T08:21:49.277Z,40.23
2018-03-04T08:24:28.601Z,41.57
2018-03-04T08:27:08.030Z,42.87
2018-03-04T08:29:35.568Z,40.10
2018-03-04T08:32:03.121Z,41.23
2018-03-04T08:34:30.724Z,39.10
2018-03-04T08:36:58.248Z,35.70
2018-03-04T08:39:26.536Z,39.50
2018-03-04T08:41:54.590Z,39.70
2018-03-04T08:44:22.101Z,39.20
2018-03-04T08:46:50.442Z,36.23
2018-03-04T08:49:17.975Z,36.63
2018-03-04T08:51:45.528Z,36.03
2018-03-04T08:54:13.816Z,38.23
2018-03-04T08:56:41.389Z,37.17
2018-03-04T08:59:09.679Z,36.30
2018-03-04T09:01:37.997Z,32.17
2018-03-04T09:04:05.519Z,33.23
2018-03-04T09:06:33.074Z,34.30
2018-03-04T09:09:00.598Z,32.37
2018-03-04T09:11:28.153Z,33.43
2018-03-04T09:13:55.678Z,31.53
2018-03-04T09:16:23.233Z,28.43
2018-03-04T09:18:50.750Z,25.30
2018-03-04T09:21:18.343Z,26.70
2018-03-04T09:23:46.633Z,25.17
2018-03-04T09:26:14.956Z,23.23
2018-03-04T09:28:42.487Z,22.17
2018-03-04T09:31:10.813Z,24.87
2018-03-04T09:33:38.337Z,24.73
2018-03-04T09:36:05.900Z,22.00
2018-03-04T09:38:33.428Z,25.90
2018-03-04T09:41:00.984Z,25.40
2018-03-04T09:43:29.268Z,24.60
2018-03-04T09:45:57.586Z,25.40
2018-03-04T09:48:25.108Z,25.37
2018-03-04T09:50:52.704Z,23.80
2018-03-04T09:53:20.224Z,26.00
2018-03-04T09:55:47.761Z,26.77
2018-03-04T09:58:15.314Z,26.47
2018-03-04T10:00:43.628Z,24.43
2018-03-04T10:03:11.152Z,28.23
2018-03-04T10:05:38.716Z,27.37
2018-03-04T10:08:06.245Z,25.97
2018-03-04T10:10:33.799Z,26.10
2018-03-04T10:13:01.338Z,24.57
2018-03-04T10:15:28.896Z,22.57
2018-03-04T10:17:56.424Z,26.80
2018-03-04T10:20:23.991Z,24.67
2018-03-04T10:22:51.520Z,24.33
2018-03-04T10:25:19.082Z,26.40
2018-03-04T10:27:46.604Z,24.13
2018-03-04T10:30:14.729Z,24.80
2018-03-04T10:32:42.256Z,23.87
2018-03-04T10:35:10.581Z,24.13
2018-03-04T10:37:38.096Z,26.00
2018-03-04T10:40:05.668Z,22.93
2018-03-04T10:42:33.200Z,24.97
2018-03-04T10:45:00.776Z,23.67
2018-03-04T10:47:28.299Z,23.50
2018-03-04T10:49:55.821Z,24.07
2018-03-04T10:52:23.376Z,25.37
2018-03-04T10:54:50.901Z,24.87
2018-03-04T10:57:18.489Z,25.07
2018-03-04T10:59:46.034Z,20.90
2018-03-04T11:02:17.545Z,26.07
2018-03-04T11:04:45.465Z,27.60
2018-03-04T11:07:13.031Z,25.43
2018-03-04T11:09:40.579Z,27.63
2018-03-04T11:12:08.143Z,26.63
2018-03-04T11:14:36.429Z,25.90
2018-03-04T11:17:04.756Z,25.03
2018-03-04T11:19:32.328Z,27.47
2018-03-04T11:21:59.889Z,26.30
2018-03-04T11:24:27.415Z,26.70
2018-03-04T11:26:54.973Z,25.83
2018-03-04T11:29:22.494Z,26.07
2018-03-04T11:31:50.050Z,24.30
2018-03-04T11:34:18.346Z,27.70
2018-03-04T11:36:45.918Z,24.27
2018-03-04T11:39:14.212Z,26.47
2018-03-04T11:41:41.773Z,23.30
2018-03-04T11:44:10.080Z,23.00
2018-03-04T11:46:37.633Z,22.70
2018-03-04T11:49:05.173Z,25.87
2018-03-04T11:51:32.727Z,23.40
2018-03-04T11:54:00.241Z,23.70
2018-03-04T11:56:27.786Z,25.37
2018-03-04T11:58:55.313Z,21.40
2018-03-04T12:01:22.893Z,21.17
2018-03-04T12:03:50.409Z,23.73
2018-03-04T12:06:17.961Z,23.10
2018-03-04T12:08:45.485Z,23.60
2018-03-04T12:11:13.802Z,22.63
2018-03-04T12:13:41.353Z,21.73
2018-03-04T12:16:09.668Z,22.43
2018-03-04T12:18:37.181Z,21.70
2018-03-04T12:21:04.739Z,21.50
2018-03-04T12:23:32.265Z,22.07
2018-03-04T12:25:59.838Z,22.77
2018-03-04T12:28:27.406Z,23.53
2018-03-04T12:30:55.021Z,20.10
2018-03-04T12:33:22.512Z,21.83
2018-03-04T12:35:50.060Z,20.30
2018-03-04T12:38:17.596Z,21.10
2018-03-04T12:40:45.160Z,21.27
2018-03-04T12:43:13.448Z,23.10
2018-03-04T12:45:41.002Z,19.70
2018-03-04T12:48:08.534Z,23.30
2018-03-04T12:50:36.090Z,19.57
2018-03-04T12:53:03.622Z,18.90
2018-03-04T12:55:31.256Z,20.93
2018-03-04T12:57:58.753Z,20.30
2018-03-04T13:00:27.104Z,20.13
2018-03-04T13:02:54.634Z,20.33
2018-03-04T13:05:22.193Z,19.53
2018-03-04T13:07:49.719Z,19.23
2018-03-04T13:10:17.281Z,19.40
2018-03-04T13:12:45.174Z,19.33
2018-03-04T13:15:13.556Z,18.90
2018-03-04T13:17:41.080Z,19.30
2018-03-04T13:20:08.647Z,16.60
2018-03-04T13:22:36.165Z,19.57
2018-03-04T13:25:03.743Z,17.90
2018-03-04T13:27:31.300Z,20.23
2018-03-04T13:29:59.584Z,17.60
2018-03-04T13:32:27.152Z,18.87
2018-03-04T13:34:55.465Z,18.90
2018-03-04T13:37:23.017Z,19.00
2018-03-04T13:39:51.308Z,21.67
2018-03-04T13:42:18.887Z,19.60
2018-03-04T13:44:46.475Z,18.20
2018-03-04T13:47:14.096Z,19.57
2018-03-04T13:49:41.625Z,18.00
2018-03-04T13:52:09.186Z,19.20
2018-03-04T13:54:36.708Z,17.43
2018-03-04T13:57:04.266Z,19.00
2018-03-04T13:59:31.800Z,19.70
2018-03-04T14:01:59.378Z,19.87
2018-03-04T14:04:26.912Z,19.83
2018-03-04T14:06:54.469Z,18.53
2018-03-04T14:09:22.013Z,18.40
2018-03-04T14:11:49.583Z,20.10
2018-03-04T14:14:18.175Z,19.13
2018-03-04T14:16:45.744Z,20.40
2018-03-04T14:19:13.284Z,18.80
2018-03-04T14:21:41.604Z,19.57
2018-03-04T14:24:09.145Z,17.97
2018-03-04T14:26:36.702Z,17.70
2018-03-04T14:29:04.225Z,18.67
2018-03-04T14:31:31.786Z,17.73
2018-03-04T14:33:59.312Z,18.20
2018-03-04T14:36:26.888Z,23.67
2018-03-04T14:38:54.420Z,23.10
2018-03-04T14:41:21.995Z,24.67
2018-03-04T14:43:49.517Z,25.50
2018-03-04T14:46:17.080Z,24.50
2018-03-04T14:48:44.748Z,22.63
2018-03-04T14:51:12.304Z,19.67
2018-03-04T14:53:39.838Z,21.77
2018-03-04T14:56:07.396Z,22.37
2018-03-04T14:58:35.723Z,25.47
2018-03-04T15:01:03.303Z,29.57
2018-03-04T15:03:30.839Z,26.47
2018-03-04T15:05:59.173Z,24.50
2018-03-04T15:08:26.697Z,22.87
2018-03-04T15:10:54.309Z,23.57
2018-03-04T15:13:22.627Z,23.70
2018-03-04T15:15:50.223Z,21.87
2018-03-04T15:18:18.536Z,23.73
2018-03-04T15:20:46.101Z,22.83
2018-03-04T15:23:14.389Z,23.10
2018-03-04T15:25:42.715Z,23.37
2018-03-04T15:28:10.236Z,23.20
2018-03-04T15:30:38.572Z,24.50
2018-03-04T15:33:06.110Z,22.90
2018-03-04T15:35:33.680Z,24.42
2018-03-04T15:38:01.209Z,24.50
2018-03-04T15:40:28.786Z,22.10
2018-03-04T15:42:56.392Z,23.53
2018-03-04T15:45:24.727Z,23.33
2018-03-04T15:47:52.278Z,23.87
2018-03-04T15:50:19.840Z,21.80
2018-03-04T15:52:47.376Z,25.13
2018-03-04T15:55:14.936Z,27.23
2018-03-04T15:57:42.460Z,26.27
2018-03-04T16:00:10.788Z,25.60
2018-03-04T16:02:38.307Z,25.80
2018-03-04T16:05:06.636Z,24.77
2018-03-04T16:07:34.160Z,23.17
2018-03-04T16:10:01.713Z,25.37
2018-03-04T16:12:29.233Z,25.80
2018-03-04T16:14:56.829Z,25.20
2018-03-04T16:17:24.390Z,26.80
2018-03-04T16:19:51.964Z,28.73
2018-03-04T16:22:19.498Z,25.70
2018-03-04T16:24:47.040Z,25.17
2018-03-04T16:27:14.572Z,29.00
2018-03-04T16:29:42.182Z,26.60
2018-03-04T16:32:09.722Z,27.70
2018-03-04T16:34:37.288Z,26.93
2018-03-04T16:37:04.841Z,29.33
2018-03-04T16:39:33.168Z,28.20
2018-03-04T16:42:00.719Z,29.83
2018-03-04T16:44:28.272Z,27.67
2018-03-04T16:46:56.565Z,28.27
2018-03-04T16:49:24.899Z,29.50
2018-03-04T16:51:52.421Z,31.27
2018-03-04T16:54:20.764Z,24.27
2018-03-04T16:56:48.314Z,25.27
2018-03-04T16:59:15.876Z,24.37
2018-03-04T17:01:43.409Z,27.27
2018-03-04T17:04:10.988Z,28.93
2018-03-04T17:06:39.297Z,25.17
2018-03-04T17:09:07.639Z,27.60
2018-03-04T17:11:35.165Z,27.80
2018-03-04T17:14:02.728Z,31.17
2018-03-04T17:16:31.022Z,25.83
2018-03-04T17:18:59.358Z,28.87
2018-03-04T17:21:26.891Z,33.00
2018-03-04T17:23:55.222Z,30.53
2018-03-04T17:26:22.765Z,27.50
2018-03-04T17:28:50.390Z,29.07
2018-03-04T17:31:17.892Z,32.40
2018-03-04T17:33:46.220Z,31.07
2018-03-04T17:36:13.751Z,33.83
2018-03-04T17:38:41.305Z,34.40
2018-03-04T17:41:08.834Z,36.17
2018-03-04T17:43:36.389Z,29.87
2018-03-04T17:46:03.929Z,30.30
2018-03-04T17:48:31.477Z,30.43
2018-03-04T17:50:59.069Z,30.80
2018-03-04T17:53:26.626Z,34.03
2018-03-04T17:55:54.150Z,23.80
2018-03-04T17:58:21.713Z,33.47
2018-03-04T18:00:49.992Z,27.40
2018-03-04T18:03:17.538Z,32.13
2018-03-04T18:05:45.072Z,30.10
2018-03-04T18:08:12.696Z,35.50
2018-03-04T18:10:40.233Z,31.20
2018-03-04T18:13:07.804Z,33.77
2018-03-04T18:15:35.329Z,33.73
2018-03-04T18:18:03.726Z,34.10
2018-03-04T18:20:32.020Z,33.27
2018-03-04T18:23:00.339Z,31.13
2018-03-04T18:25:27.891Z,34.17
2018-03-04T18:27:55.505Z,34.40
2018-03-04T18:30:23.063Z,33.30
2018-03-04T18:32:50.656Z,34.67
2018-03-04T18:35:18.193Z,36.50
2018-03-04T18:37:45.749Z,34.00
2018-03-04T18:40:13.289Z,34.47
2018-03-04T18:42:40.862Z,37.03
2018-03-04T18:45:08.429Z,35.67
2018-03-04T18:47:36.000Z,34.03
2018-03-04T18:50:03.524Z,33.70
2018-03-04T18:52:31.077Z,33.90
2018-03-04T18:54:59.369Z,30.10
2018-03-04T18:57:27.689Z,33.80
2018-03-04T18:59:55.213Z,34.13
2018-03-04T19:02:23.553Z,36.63
2018-03-04T19:04:51.084Z,34.53
2018-03-04T19:07:18.657Z,36.47
2018-03-04T19:09:46.972Z,34.23
2018-03-04T19:12:14.516Z,33.10
2018-03-04T19:14:42.810Z,34.53
2018-03-04T19:17:11.200Z,36.67
2018-03-04T19:19:39.518Z,32.83
2018-03-04T19:22:07.069Z,33.60
2018-03-04T19:24:35.353Z,33.70
2018-03-04T19:27:02.921Z,32.97
2018-03-04T19:29:30.458Z,31.80
2018-03-04T19:31:58.028Z,35.50
2018-03-04T19:34:25.614Z,32.83
2018-03-04T19:36:53.154Z,32.00
2018-03-04T19:39:20.704Z,32.37
2018-03-04T19:41:49.027Z,30.90
2018-03-04T19:44:16.557Z,31.07
2018-03-04T19:46:44.872Z,28.83
2018-03-04T19:49:12.500Z,35.47
2018-03-04T19:51:40.095Z,36.97
2018-03-04T19:54:07.628Z,31.33
2018-03-04T19:56:35.189Z,32.20
2018-03-04T19:59:02.729Z,33.23
2018-03-04T20:01:30.279Z,31.03
2018-03-04T20:03:58.585Z,32.40
2018-03-04T20:06:26.192Z,32.87
2018-03-04T20:08:53.737Z,33.13
2018-03-04T20:11:21.296Z,30.60
2018-03-04T20:13:49.589Z,30.87
2018-03-04T20:16:17.928Z,33.40
2018-03-04T20:18:45.880Z,32.83
2018-03-04T20:21:13.436Z,32.97
2018-03-04T20:23:40.973Z,34.13
2018-03-04T20:26:08.672Z,31.43
2018-03-04T20:28:36.189Z,35.20
2018-03-04T20:31:03.882Z,31.90
2018-03-04T20:33:31.440Z,31.37
2018-03-04T20:35:59.013Z,34.60
2018-03-04T20:38:26.546Z,30.20
2018-03-04T20:40:54.155Z,31.97
2018-03-04T20:43:21.698Z,30.07
2018-03-04T20:45:49.256Z,31.33
2018-03-04T20:48:16.776Z,30.27
2018-03-04T20:50:44.338Z,30.83
2018-03-04T20:53:11.919Z,28.70
2018-03-04T20:55:39.477Z,28.67
2018-03-04T20:58:07.009Z,27.60
2018-03-04T21:00:34.574Z,31.30
2018-03-04T21:03:02.096Z,30.00
2018-03-04T21:05:29.650Z,31.93
2018-03-04T21:07:57.177Z,31.50
2018-03-04T21:10:24.729Z,30.90
2018-03-04T21:12:52.247Z,29.30
2018-03-04T21:15:20.569Z,29.63
2018-03-04T21:17:48.102Z,29.83
2018-03-04T21:20:15.653Z,29.33
2018-03-04T21:22:43.218Z,30.40
2018-03-04T21:25:10.770Z,29.80
2018-03-04T21:27:38.322Z,25.90
2018-03-04T21:30:05.853Z,29.30
2018-03-04T21:32:33.423Z,29.30
2018-03-04T21:35:00.965Z,27.80
2018-03-04T21:37:28.518Z,29.50
2018-03-04T21:39:56.053Z,26.57
2018-03-04T21:42:23.605Z,28.03
2018-03-04T21:44:51.127Z,29.10
2018-03-04T21:47:18.831Z,25.20
2018-03-04T21:49:46.412Z,28.83
2018-03-04T21:52:13.941Z,27.33
2018-03-04T21:54:43.408Z,25.57
2018-03-04T21:57:11.273Z,25.57
2018-03-04T21:59:38.806Z,25.47
2018-03-04T22:02:06.357Z,24.37
2018-03-04T22:04:33.893Z,20.30
2018-03-04T22:07:01.455Z,20.60
2018-03-04T22:09:28.984Z,17.37
2018-03-04T22:11:57.313Z,14.53
2018-03-04T22:14:24.848Z,13.33
2018-03-04T22:16:53.158Z,10.47
2018-03-04T22:19:20.681Z,8.27
2018-03-04T22:21:48.229Z,7.80
2018-03-04T22:24:15.755Z,6.27
2018-03-04T22:26:44.077Z,4.90
2018-03-04T22:29:11.603Z,5.60
2018-03-04T22:31:39.152Z,4.93
2018-03-04T22:34:06.665Z,5.47
2018-03-04T22:36:34.987Z,4.43
2018-03-04T22:39:02.500Z,4.30
2018-03-04T22:41:30.069Z,4.40
2018-03-04T22:43:57.582Z,4.10
2018-03-04T22:46:25.181Z,3.73
2018-03-04T22:48:53.433Z,3.83
2018-03-04T22:51:21.744Z,3.77
2018-03-04T22:53:49.261Z,3.50
2018-03-04T22:56:16.810Z,3.77
2018-03-04T22:58:44.392Z,3.50
2018-03-04T23:01:11.937Z,3.40
2018-03-04T23:03:39.459Z,3.03
2018-03-04T23:06:07.012Z,3.50
2018-03-04T23:08:34.532Z,3.00
2018-03-04T23:11:02.077Z,2.90
2018-03-04T23:13:29.599Z,2.90
2018-03-04T23:15:57.153Z,4.03
2018-03-04T23:18:24.668Z,2.73
2018-03-04T23:20:52.229Z,3.53
2018-03-04T23:23:19.745Z,3.13
2018-03-04T23:25:48.032Z,3.30
2018-03-04T23:28:15.573Z,2.53
2018-03-04T23:30:43.140Z,2.60
2018-03-04T23:33:10.656Z,2.50
2018-03-04T23:35:38.932Z,2.00
2018-03-04T23:38:06.484Z,1.77
2018-03-04T23:40:34.001Z,2.10
2018-03-04T23:43:02.316Z,2.20
2018-03-04T23:45:29.852Z,1.93
2018-03-04T23:47:58.171Z,2.10
2018-03-04T23:50:25.691Z,2.30
2018-03-04T23:52:53.231Z,2.33
2018-03-04T23:55:20.751Z,1.90
2018-03-04T23:57:49.065Z,2.03
